createdAt,value
2023-01-02T00:00:31.344Z,4.90
2023-01-02T00:02:58.177Z,4.84
2023-01-02T00:05:25.106Z,4.80
2023-01-02T00:07:52.298Z,4.80
2023-01-02T00:10:19.098Z,4.80
2023-01-02T00:12:45.849Z,4.80
2023-01-02T00:15:12.567Z,4.80
2023-01-02T00:17:39.413Z,4.70
2023-01-02T00:20:06.610Z,4.70
2023-01-02T00:22:33.325Z,4.70
2023-01-02T00:25:00.105Z,4.60
2023-01-02T00:27:27.201Z,4.60
2023-01-02T00:29:53.897Z,4.60
2023-01-02T00:32:20.774Z,4.60
2023-01-02T00:34:47.446Z,4.50
2023-01-02T00:37:14.257Z,4.50
2023-01-02T00:39:41.610Z,4.50
2023-01-02T00:42:08.309Z,4.50
2023-01-02T00:44:35.085Z,4.42
2023-01-02T00:47:01.897Z,4.40
2023-01-02T00:49:28.802Z,4.40
2023-01-02T00:51:55.485Z,4.40
2023-01-02T00:54:22.257Z,4.30
2023-01-02T00:56:48.989Z,4.24
2023-01-02T00:59:15.727Z,4.20
2023-01-02T01:01:42.435Z,4.20
2023-01-02T01:04:09.527Z,4.20
2023-01-02T01:06:36.255Z,4.20
2023-01-02T01:09:03.009Z,4.20
2023-01-02T01:11:30.060Z,4.20
2023-01-02T01:13:57.569Z,4.20
2023-01-02T01:16:25.729Z,4.20
2023-01-02T01:18:57.083Z,4.20
2023-01-02T01:21:23.878Z,4.20
2023-01-02T01:23:52.544Z,4.20
2023-01-02T01:26:20.430Z,4.20
2023-01-02T01:28:47.568Z,4.20
2023-01-02T01:31:16.102Z,4.20
2023-01-02T01:33:43.882Z,4.20
2023-01-02T01:36:13.704Z,4.20
2023-01-02T01:38:41.517Z,4.10
2023-01-02T01:41:09.351Z,4.10
2023-01-02T01:43:43.771Z,4.10
2023-01-02T01:46:35.091Z,4.10
2023-01-02T01:49:26.261Z,4.04
2023-01-02T01:51:56.103Z,4.10
2023-01-02T01:54:31.873Z,4.02
2023-01-02T01:57:04.439Z,4.00
2023-01-02T01:59:31.178Z,4.00
2023-01-02T02:01:58.347Z,4.00
2023-01-02T02:04:26.598Z,4.00
2023-01-02T02:06:54.816Z,4.00
2023-01-02T02:09:33.090Z,3.96
2023-01-02T02:11:59.924Z,3.90
2023-01-02T02:14:26.569Z,3.90
2023-01-02T02:17:11.686Z,3.90
2023-01-02T02:19:50.155Z,3.80
2023-01-02T02:22:41.370Z,3.76
2023-01-02T02:25:45.588Z,3.70
2023-01-02T02:28:38.637Z,3.70
2023-01-02T02:31:19.678Z,3.70
2023-01-02T02:34:01.140Z,3.74
2023-01-02T02:36:36.900Z,3.80
2023-01-02T02:39:22.239Z,3.86
2023-01-02T02:42:11.167Z,3.90
2023-01-02T02:45:09.256Z,4.00
2023-01-02T02:47:50.487Z,4.04
2023-01-02T02:50:27.453Z,4.10
2023-01-02T02:53:17.711Z,4.18
2023-01-02T02:55:48.753Z,4.20
2023-01-02T02:58:18.566Z,4.20
2023-01-02T03:00:45.304Z,4.20
2023-01-02T03:03:20.577Z,4.30
2023-01-02T03:06:10.450Z,4.30
2023-01-02T03:08:42.519Z,4.30
2023-01-02T03:11:10.675Z,4.20
2023-01-02T03:14:06.915Z,4.20
2023-01-02T03:16:42.267Z,4.20
2023-01-02T03:19:28.232Z,4.10
2023-01-02T03:22:03.217Z,4.10
2023-01-02T03:24:31.966Z,4.00
2023-01-02T03:27:03.843Z,4.00
2023-01-02T03:29:47.888Z,4.00
2023-01-02T03:32:22.957Z,4.00
2023-01-02T03:34:52.088Z,3.90
2023-01-02T03:37:25.790Z,3.90
2023-01-02T03:39:57.042Z,3.92
2023-01-02T03:42:31.241Z,3.94
2023-01-02T03:45:18.156Z,4.00
2023-01-02T03:47:52.995Z,4.00
2023-01-02T03:50:34.375Z,4.10
2023-01-02T03:53:02.181Z,4.10
2023-01-02T03:55:34.698Z,4.20
2023-01-02T03:58:01.355Z,4.20
2023-01-02T04:00:37.111Z,4.20
2023-01-02T04:03:19.354Z,4.20
2023-01-02T04:06:22.204Z,4.20
2023-01-02T04:09:00.301Z,4.30
2023-01-02T04:11:29.193Z,4.30
2023-01-02T04:14:03.626Z,4.40
2023-01-02T04:16:35.354Z,4.44
2023-01-02T04:19:18.187Z,4.50
2023-01-02T04:21:48.476Z,4.50
2023-01-02T04:24:23.241Z,4.60
2023-01-02T04:26:59.767Z,4.60
2023-01-02T04:29:26.757Z,4.60
2023-01-02T04:32:01.078Z,4.60
2023-01-02T04:34:32.154Z,4.70
2023-01-02T04:36:59.568Z,4.70
2023-01-02T04:39:29.098Z,4.80
2023-01-02T04:41:56.030Z,4.80
2023-01-02T04:44:22.717Z,4.80
2023-01-02T04:46:49.503Z,4.80
2023-01-02T04:49:16.236Z,4.80
2023-01-02T04:51:43.184Z,4.80
2023-01-02T04:54:12.377Z,4.80
2023-01-02T04:56:39.264Z,4.80
2023-01-02T04:59:06.069Z,4.80
2023-01-02T05:01:32.842Z,4.70
2023-01-02T05:03:59.761Z,4.64
2023-01-02T05:06:26.406Z,4.64
2023-01-02T05:08:53.157Z,4.60
2023-01-02T05:11:20.991Z,4.60
2023-01-02T05:13:47.653Z,4.60
2023-01-02T05:16:14.615Z,4.60
2023-01-02T05:18:41.438Z,4.60
2023-01-02T05:21:33.242Z,4.60
2023-01-02T05:24:02.767Z,4.60
2023-01-02T05:26:33.179Z,4.60
2023-01-02T05:29:00.937Z,4.60
2023-01-02T05:31:28.265Z,4.60
2023-01-02T05:33:56.466Z,4.60
2023-01-02T05:36:24.840Z,4.62
2023-01-02T05:38:52.798Z,4.66
2023-01-02T05:41:20.776Z,4.70
2023-01-02T05:43:47.817Z,4.70
2023-01-02T05:46:19.666Z,4.70
2023-01-02T05:48:47.537Z,4.70
2023-01-02T05:51:16.424Z,4.70
2023-01-02T05:53:43.607Z,4.80
2023-01-02T05:56:16.578Z,4.80
2023-01-02T05:58:46.275Z,4.80
2023-01-02T06:01:19.345Z,4.80
2023-01-02T06:03:51.611Z,4.88
2023-01-02T06:06:20.756Z,4.90
2023-01-02T06:08:47.622Z,4.90
2023-01-02T06:11:14.842Z,4.90
2023-01-02T06:13:42.074Z,4.90
2023-01-02T06:16:10.536Z,4.90
2023-01-02T06:18:38.658Z,4.80
2023-01-02T06:21:08.010Z,4.80
2023-01-02T06:23:35.295Z,4.70
2023-01-02T06:26:07.574Z,4.70
2023-01-02T06:28:34.626Z,4.60
2023-01-02T06:31:03.481Z,4.60
2023-01-02T06:33:31.071Z,4.60
2023-01-02T06:35:59.797Z,4.70
2023-01-02T06:38:27.100Z,4.72
2023-01-02T06:40:55.547Z,4.80
2023-01-02T06:43:23.345Z,4.80
2023-01-02T06:45:50.638Z,4.90
2023-01-02T06:48:17.856Z,4.90
2023-01-02T06:50:45.722Z,4.90
2023-01-02T06:53:13.389Z,4.90
2023-01-02T06:55:40.158Z,4.98
2023-01-02T06:58:12.314Z,4.96
2023-01-02T07:00:41.573Z,5.00
2023-01-02T07:03:08.328Z,5.00
2023-01-02T07:05:35.143Z,5.00
2023-01-02T07:08:01.899Z,5.00
2023-01-02T07:10:28.611Z,5.00
2023-01-02T07:12:55.405Z,5.00
2023-01-02T07:15:22.191Z,5.00
2023-01-02T07:17:49.055Z,5.00
2023-01-02T07:20:16.130Z,5.00
2023-01-02T07:22:42.850Z,5.10
2023-01-02T07:25:09.680Z,5.10
2023-01-02T07:27:36.542Z,5.20
2023-01-02T07:30:03.541Z,5.28
2023-01-02T07:32:30.357Z,5.30
2023-01-02T07:34:57.127Z,5.40
2023-01-02T07:37:23.897Z,5.40
2023-01-02T07:39:50.650Z,5.50
2023-01-02T07:42:17.413Z,5.60
2023-01-02T07:44:44.229Z,5.60
2023-01-02T07:47:11.087Z,5.60
2023-01-02T07:49:37.824Z,5.64
2023-01-02T07:52:04.780Z,5.60
2023-01-02T07:54:31.463Z,5.60
2023-01-02T07:56:58.216Z,5.64
2023-01-02T07:59:24.977Z,5.70
2023-01-02T08:01:51.753Z,5.70
2023-01-02T08:04:18.920Z,5.80
2023-01-02T08:06:45.921Z,5.80
2023-01-02T08:09:12.656Z,5.80
2023-01-02T08:11:39.602Z,5.80
2023-01-02T08:14:06.440Z,5.80
2023-01-02T08:16:33.375Z,5.80
2023-01-02T08:19:00.227Z,5.70
2023-01-02T08:21:27.182Z,5.70
2023-01-02T08:23:54.328Z,5.72
2023-01-02T08:26:21.782Z,5.80
2023-01-02T08:28:48.821Z,5.80
2023-01-02T08:31:21.160Z,5.80
2023-01-02T08:33:49.167Z,5.90
2023-01-02T08:36:17.860Z,6.00
2023-01-02T08:38:44.778Z,6.00
2023-01-02T08:41:11.645Z,6.00
2023-01-02T08:43:38.789Z,6.02
2023-01-02T08:46:07.695Z,6.00
2023-01-02T08:48:35.541Z,6.00
2023-01-02T08:51:04.126Z,6.00
2023-01-02T08:53:30.890Z,6.02
2023-01-02T08:56:24.233Z,6.10
2023-01-02T08:58:54.929Z,6.10
2023-01-02T09:01:23.995Z,6.10
2023-01-02T09:03:52.185Z,6.20
2023-01-02T09:06:22.313Z,6.30
2023-01-02T09:08:52.495Z,6.30
2023-01-02T09:11:26.476Z,6.30
2023-01-02T09:13:54.084Z,6.30
2023-01-02T09:16:22.028Z,6.30
2023-01-02T09:18:49.570Z,6.30
2023-01-02T09:21:17.129Z,6.38
2023-01-02T09:23:44.076Z,6.40
2023-01-02T09:26:12.573Z,6.40
2023-01-02T09:28:39.412Z,6.40
2023-01-02T09:31:12.078Z,6.40
2023-01-02T09:33:40.637Z,6.40
2023-01-02T09:36:09.473Z,6.50
2023-01-02T09:38:36.420Z,6.58
2023-01-02T09:41:13.778Z,6.60
2023-01-02T09:43:47.942Z,6.60
2023-01-02T09:46:44.065Z,6.66
2023-01-02T09:49:15.321Z,6.80
2023-01-02T09:51:44.060Z,6.80
2023-01-02T09:54:21.157Z,6.80
2023-01-02T09:56:54.822Z,6.80
2023-01-02T09:59:29.674Z,6.90
2023-01-02T10:02:07.159Z,6.90
2023-01-02T10:04:52.464Z,7.00
2023-01-02T10:07:54.930Z,7.00
2023-01-02T10:11:03.179Z,7.06
2023-01-02T10:16:49.948Z,7.00
2023-01-02T10:19:26.011Z,7.00
2023-01-02T10:21:58.688Z,6.92
2023-01-02T10:24:39.776Z,6.98
2023-01-02T10:27:13.158Z,6.92
2023-01-02T10:29:44.700Z,7.00
2023-01-02T10:32:17.694Z,7.00
2023-01-02T10:35:06.256Z,7.00
2023-01-02T10:37:34.428Z,7.10
2023-01-02T10:40:01.792Z,7.10
2023-01-02T10:42:31.333Z,7.16
2023-01-02T10:44:57.991Z,7.22
2023-01-02T10:47:34.433Z,7.30
2023-01-02T10:50:03.894Z,7.32
2023-01-02T10:52:47.044Z,7.40
2023-01-02T10:55:13.791Z,7.36
2023-01-02T10:57:44.010Z,7.40
2023-01-02T11:00:25.649Z,7.40
2023-01-02T11:02:57.526Z,7.36
2023-01-02T11:05:30.163Z,7.30
2023-01-02T11:07:58.075Z,7.30
2023-01-02T11:10:28.614Z,7.30
2023-01-02T11:12:55.921Z,7.40
2023-01-02T11:15:30.864Z,7.40
2023-01-02T11:17:58.944Z,7.54
2023-01-02T11:20:28.262Z,7.70
2023-01-02T11:22:57.839Z,7.70
2023-01-02T11:25:35.967Z,7.80
2023-01-02T11:28:03.431Z,7.96
2023-01-02T11:30:44.259Z,8.06
2023-01-02T11:33:14.018Z,8.18
2023-01-02T11:35:48.156Z,8.30
2023-01-02T11:38:29.512Z,8.30
2023-01-02T11:40:59.927Z,8.40
2023-01-02T11:43:49.747Z,8.50
2023-01-02T11:46:33.251Z,8.50
2023-01-02T11:49:12.466Z,8.48
2023-01-02T11:51:41.031Z,8.40
2023-01-02T11:54:14.295Z,8.40
2023-01-02T11:56:44.271Z,8.32
2023-01-02T11:59:23.012Z,8.30
2023-01-02T12:01:58.821Z,8.30
2023-01-02T12:04:26.201Z,8.20
2023-01-02T12:07:27.137Z,8.10
2023-01-02T12:10:11.786Z,8.10
2023-01-02T12:12:50.636Z,8.08
2023-01-02T12:15:29.667Z,8.08
2023-01-02T12:18:01.423Z,8.00
2023-01-02T12:20:28.102Z,8.00
2023-01-02T12:23:08.512Z,8.00
2023-01-02T12:26:09.166Z,8.00
2023-01-02T12:28:58.634Z,8.10
2023-01-02T12:31:31.420Z,8.12
2023-01-02T12:34:15.641Z,8.20
2023-01-02T12:37:14.017Z,8.30
2023-01-02T12:40:11.691Z,8.40
2023-01-02T12:42:53.488Z,8.30
2023-01-02T12:45:31.325Z,8.16
2023-01-02T12:48:28.756Z,8.06
2023-01-02T12:51:07.666Z,8.00
2023-01-02T12:53:42.496Z,7.90
2023-01-02T12:56:27.697Z,7.90
2023-01-02T12:59:08.236Z,7.90
2023-01-02T13:02:02.337Z,7.80
2023-01-02T13:04:34.273Z,7.80
2023-01-02T13:07:08.277Z,7.80
2023-01-02T13:09:42.107Z,7.80
2023-01-02T13:12:22.153Z,7.70
2023-01-02T13:14:48.810Z,7.60
2023-01-02T13:17:49.890Z,7.44
2023-01-02T13:20:54.151Z,7.30
2023-01-02T13:23:34.815Z,7.10
2023-01-02T13:26:05.851Z,7.00
2023-01-02T13:28:34.025Z,6.90
2023-01-02T13:33:54.205Z,6.70
2023-01-02T13:36:28.628Z,6.70
2023-01-02T13:39:21.525Z,6.72
2023-01-02T13:42:20.617Z,6.80
2023-01-02T13:44:51.561Z,6.90
2023-01-02T13:47:37.371Z,6.90
2023-01-02T13:50:19.482Z,7.00
2023-01-02T13:53:04.893Z,6.90
2023-01-02T13:56:06.373Z,6.80
2023-01-02T13:58:45.562Z,6.80
2023-01-02T14:01:21.239Z,6.80
2023-01-02T14:03:49.757Z,6.80
2023-01-02T14:06:47.233Z,6.80
2023-01-02T14:09:19.433Z,6.80
2023-01-02T14:11:57.661Z,6.90
2023-01-02T14:14:27.463Z,6.90
2023-01-02T14:17:14.600Z,6.80
2023-01-02T14:19:41.578Z,6.80
2023-01-02T14:22:14.310Z,6.88
2023-01-02T14:24:49.961Z,6.94
2023-01-02T14:27:18.328Z,6.90
2023-01-02T14:29:53.243Z,6.90
2023-01-02T14:32:42.548Z,6.80
2023-01-02T14:35:15.153Z,6.80
2023-01-02T14:37:52.335Z,6.80
2023-01-02T14:40:21.926Z,6.80
2023-01-02T14:43:27.682Z,6.80
2023-01-02T14:46:11.477Z,6.80
2023-01-02T14:48:41.248Z,6.80
2023-01-02T14:51:22.218Z,6.80
2023-01-02T14:53:53.348Z,6.80
2023-01-02T14:56:25.354Z,6.80
2023-01-02T14:58:53.468Z,6.80
2023-01-02T15:01:43.312Z,6.74
2023-01-02T15:04:23.309Z,6.80
2023-01-02T15:07:14.965Z,6.80
2023-01-02T15:09:46.191Z,6.80
2023-01-02T15:12:43.741Z,6.84
2023-01-02T15:15:15.809Z,6.80
2023-01-02T15:17:44.523Z,6.80
2023-01-02T15:20:22.947Z,6.80
2023-01-02T15:22:52.866Z,6.80
2023-01-02T15:25:32.709Z,6.70
2023-01-02T15:27:59.425Z,6.60
2023-01-02T15:30:34.599Z,6.50
2023-01-02T15:33:01.249Z,6.40
2023-01-02T15:35:31.089Z,6.38
2023-01-02T15:37:57.963Z,6.30
2023-01-02T15:40:26.418Z,6.30
2023-01-02T15:43:14.247Z,6.30
2023-01-02T15:45:45.785Z,6.30
2023-01-02T15:48:14.201Z,6.30
2023-01-02T15:50:41.600Z,6.30
2023-01-02T15:53:19.226Z,6.30
2023-01-02T15:55:46.486Z,6.30
2023-01-02T15:58:16.164Z,6.30
2023-01-02T16:00:45.222Z,6.30
2023-01-02T16:04:02.470Z,6.34
2023-01-02T16:06:28.529Z,6.40
2023-01-02T16:08:58.374Z,6.40
2023-01-02T16:11:26.195Z,6.40
2023-01-02T16:14:19.135Z,6.40
2023-01-02T16:16:54.814Z,6.50
2023-01-02T16:19:30.977Z,6.50
2023-01-02T16:22:08.424Z,6.44
2023-01-02T16:24:39.825Z,6.40
2023-01-02T16:27:06.856Z,6.42
2023-01-02T16:29:33.709Z,6.50
2023-01-02T16:32:01.837Z,6.50
2023-01-02T16:34:32.869Z,6.50
2023-01-02T16:37:31.810Z,6.50
2023-01-02T16:40:18.826Z,6.50
2023-01-02T16:43:08.094Z,6.60
2023-01-02T16:45:37.483Z,6.60
2023-01-02T16:48:06.490Z,6.60
2023-01-02T16:50:41.113Z,6.60
2023-01-02T16:53:08.455Z,6.52
2023-01-02T16:55:35.215Z,6.50
2023-01-02T16:58:02.142Z,6.40
2023-01-02T17:00:28.996Z,6.40
2023-01-02T17:02:55.831Z,6.40
2023-01-02T17:05:32.378Z,6.40
2023-01-02T17:07:59.791Z,6.40
2023-01-02T17:10:27.591Z,6.40
2023-01-02T17:12:55.208Z,6.40
2023-01-02T17:15:22.435Z,6.40
2023-01-02T17:17:51.654Z,6.40
2023-01-02T17:20:18.610Z,6.40
2023-01-02T17:22:48.419Z,6.40
2023-01-02T17:25:17.292Z,6.40
2023-01-02T17:27:44.940Z,6.40
2023-01-02T17:30:14.363Z,6.42
2023-01-02T17:32:42.945Z,6.40
2023-01-02T17:35:12.342Z,6.40
2023-01-02T17:37:39.786Z,6.34
2023-01-02T17:40:10.235Z,6.40
2023-01-02T17:42:38.612Z,6.30
2023-01-02T17:45:06.148Z,6.30
2023-01-02T17:48:00.658Z,6.30
2023-01-02T17:50:19.808Z,6.30
2023-01-02T17:52:48.281Z,6.30
2023-01-02T17:55:14.943Z,6.30
2023-01-02T17:57:41.652Z,6.30
2023-01-02T18:00:12.387Z,6.30
2023-01-02T18:02:39.577Z,6.30
2023-01-02T18:05:07.710Z,6.40
2023-01-02T18:07:34.591Z,6.40
2023-01-02T18:10:08.829Z,6.40
2023-01-02T18:12:38.187Z,6.44
2023-01-02T18:15:14.528Z,6.50
2023-01-02T18:17:41.228Z,6.50
2023-01-02T18:20:14.810Z,6.50
2023-01-02T18:22:48.303Z,6.50
2023-01-02T18:25:21.519Z,6.56
2023-01-02T18:27:48.936Z,6.60
2023-01-02T18:30:21.645Z,6.60
2023-01-02T18:32:53.060Z,6.52
2023-01-02T18:38:34.752Z,6.60
2023-01-02T18:41:22.397Z,6.60
2023-01-02T18:43:50.355Z,6.60
2023-01-02T18:46:19.773Z,6.60
2023-01-02T18:48:47.119Z,6.60
2023-01-02T18:51:20.002Z,6.56
2023-01-02T18:53:49.520Z,6.58
2023-01-02T18:56:18.404Z,6.60
2023-01-02T18:58:51.699Z,6.52
2023-01-02T19:01:30.985Z,6.50
2023-01-02T19:04:26.768Z,6.50
2023-01-02T19:06:57.701Z,6.50
2023-01-02T19:09:34.378Z,6.50
2023-01-02T19:12:31.925Z,6.50
2023-01-02T19:15:02.251Z,6.50
2023-01-02T19:17:32.180Z,6.50
2023-01-02T19:20:00.306Z,6.44
2023-01-02T19:22:34.772Z,6.50
2023-01-02T19:25:22.994Z,6.50
2023-01-02T19:27:52.616Z,6.50
2023-01-02T19:30:38.658Z,6.50
2023-01-02T19:33:41.426Z,6.50
2023-01-02T19:36:16.904Z,6.54
2023-01-02T19:38:46.121Z,6.50
2023-01-02T19:41:12.895Z,6.40
2023-01-02T19:43:39.602Z,6.36
2023-01-02T19:46:06.715Z,6.28
2023-01-02T19:48:33.699Z,6.20
2023-01-02T19:51:00.351Z,6.10
2023-01-02T19:53:27.184Z,6.00
2023-01-02T19:55:53.909Z,5.90
2023-01-02T19:58:20.546Z,5.90
2023-01-02T20:00:47.272Z,5.90
2023-01-02T20:03:14.126Z,5.90
2023-01-02T20:05:40.865Z,5.90
2023-01-02T20:08:07.573Z,5.90
2023-01-02T20:10:34.230Z,5.90
2023-01-02T20:13:00.904Z,5.90
2023-01-02T20:15:27.705Z,5.92
2023-01-02T20:17:55.094Z,5.98
2023-01-02T20:20:25.359Z,6.00
2023-01-02T20:22:52.895Z,6.00
2023-01-02T20:25:24.084Z,6.00
2023-01-02T20:27:52.131Z,6.04
2023-01-02T20:30:23.902Z,6.10
2023-01-02T20:32:51.781Z,6.10
2023-01-02T20:35:18.581Z,6.10
2023-01-02T20:37:45.354Z,6.00
2023-01-02T20:40:12.445Z,6.00
2023-01-02T20:42:39.175Z,6.00
2023-01-02T20:45:06.661Z,5.90
2023-01-02T20:47:35.524Z,5.90
2023-01-02T20:50:04.823Z,5.80
2023-01-02T20:52:31.571Z,5.80
2023-01-02T20:54:58.745Z,5.80
2023-01-02T20:57:25.524Z,5.80
2023-01-02T20:59:52.341Z,5.70
2023-01-02T21:02:19.272Z,5.70
2023-01-02T21:04:46.286Z,5.70
2023-01-02T21:07:13.069Z,5.72
2023-01-02T21:09:39.724Z,5.80
2023-01-02T21:12:26.492Z,5.80
2023-01-02T21:14:53.244Z,5.80
2023-01-02T21:17:19.984Z,5.90
2023-01-02T21:19:46.731Z,5.90
2023-01-02T21:22:13.441Z,5.90
2023-01-02T21:24:40.215Z,5.90
2023-01-02T21:27:12.819Z,5.90
2023-01-02T21:29:40.533Z,5.90
2023-01-02T21:32:07.301Z,5.80
2023-01-02T21:34:33.992Z,5.80
2023-01-02T21:37:00.696Z,5.70
2023-01-02T21:39:27.405Z,5.70
2023-01-02T21:42:12.906Z,5.70
2023-01-02T21:44:39.569Z,5.70
2023-01-02T21:47:06.363Z,5.66
2023-01-02T21:49:33.182Z,5.64
2023-01-02T21:52:00.357Z,5.60
2023-01-02T21:54:27.757Z,5.60
2023-01-02T21:56:54.622Z,5.60
2023-01-02T21:59:25.286Z,5.60
2023-01-02T22:01:53.606Z,5.52
2023-01-02T22:04:21.499Z,5.50
2023-01-02T22:07:29.633Z,5.50
2023-01-02T22:09:35.891Z,5.50
2023-01-02T22:12:02.579Z,5.50
2023-01-02T22:14:32.212Z,5.50
2023-01-02T22:17:01.228Z,5.50
2023-01-02T22:19:28.768Z,5.50
2023-01-02T22:21:56.336Z,5.50
2023-01-02T22:24:25.716Z,5.40
2023-01-02T22:26:55.260Z,5.40
2023-01-02T22:29:33.144Z,5.38
2023-01-02T22:32:11.754Z,5.30
2023-01-02T22:34:43.505Z,5.30
2023-01-02T22:37:13.668Z,5.20
2023-01-02T22:39:42.927Z,5.20
2023-01-02T22:45:29.259Z,5.10
2023-01-02T22:47:58.965Z,5.00
2023-01-02T22:50:29.009Z,4.96
2023-01-02T22:52:56.537Z,4.90
2023-01-02T22:55:24.311Z,4.80
2023-01-02T22:57:52.041Z,4.70
2023-01-02T23:00:25.165Z,4.60
2023-01-02T23:02:51.938Z,4.50
2023-01-02T23:05:20.672Z,4.34
2023-01-02T23:07:49.724Z,4.30
2023-01-02T23:10:17.119Z,4.18
2023-01-02T23:12:44.172Z,4.10
2023-01-02T23:15:13.376Z,4.08
2023-01-02T23:17:59.457Z,4.00
2023-01-02T23:20:27.226Z,4.00
2023-01-02T23:22:54.063Z,4.10
2023-01-02T23:25:21.004Z,4.10
2023-01-02T23:27:47.896Z,4.10
2023-01-02T23:30:15.166Z,4.20
2023-01-02T23:32:41.865Z,4.20
2023-01-02T23:35:09.521Z,4.20
2023-01-02T23:37:36.259Z,4.22
2023-01-02T23:40:04.110Z,4.30
2023-01-02T23:42:30.849Z,4.30
2023-01-02T23:44:57.594Z,4.30
2023-01-02T23:47:24.328Z,4.30
2023-01-02T23:49:50.985Z,4.30
2023-01-02T23:52:17.738Z,4.30
2023-01-02T23:54:44.439Z,4.20
2023-01-02T23:57:12.539Z,4.20
2023-01-02T23:59:39.203Z,4.20
